sensor_id;sensor_type;location;lat;lon;timestamp;temperature;humidity
65408;DHT22;52017;51.230;-2.322;2022-12-07T00:00:26;5.00;77.20
65408;DHT22;52017;51.230;-2.322;2022-12-07T00:04:11;4.90;77.30
65408;DHT22;52017;51.230;-2.322;2022-12-07T00:07:54;4.80;77.50
65408;DHT22;52017;51.230;-2.322;2022-12-07T00:11:36;4.70;77.60
65408;DHT22;52017;51.230;-2.322;2022-12-07T00:15:18;4.60;77.70
65408;DHT22;52017;51.230;-2.322;2022-12-07T00:19:00;4.60;77.70
65408;DHT22;52017;51.230;-2.322;2022-12-07T00:22:42;4.50;77.70
65408;DHT22;52017;51.230;-2.322;2022-12-07T00:26:26;4.40;77.80
65408;DHT22;52017;51.230;-2.322;2022-12-07T00:30:09;4.40;77.90
65408;DHT22;52017;51.230;-2.322;2022-12-07T00:33:52;4.30;78.00
65408;DHT22;52017;51.230;-2.322;2022-12-07T00:37:34;4.20;78.10
65408;DHT22;52017;51.230;-2.322;2022-12-07T00:41:21;4.20;78.20
65408;DHT22;52017;51.230;-2.322;2022-12-07T00:45:04;4.10;78.30
65408;DHT22;52017;51.230;-2.322;2022-12-07T00:48:47;4.10;78.30
65408;DHT22;52017;51.230;-2.322;2022-12-07T00:52:29;4.00;78.40
65408;DHT22;52017;51.230;-2.322;2022-12-07T00:56:19;4.00;78.50
65408;DHT22;52017;51.230;-2.322;2022-12-07T01:00:01;4.00;78.60
65408;DHT22;52017;51.230;-2.322;2022-12-07T01:03:44;4.00;78.60
65408;DHT22;52017;51.230;-2.322;2022-12-07T01:07:26;3.90;78.70
65408;DHT22;52017;51.230;-2.322;2022-12-07T01:11:11;3.90;78.70
65408;DHT22;52017;51.230;-2.322;2022-12-07T01:14:53;3.80;78.80
65408;DHT22;52017;51.230;-2.322;2022-12-07T01:18:36;3.80;78.80
65408;DHT22;52017;51.230;-2.322;2022-12-07T01:22:18;3.70;78.80
65408;DHT22;52017;51.230;-2.322;2022-12-07T01:26:02;3.70;78.90
65408;DHT22;52017;51.230;-2.322;2022-12-07T01:29:45;3.60;78.80
65408;DHT22;52017;51.230;-2.322;2022-12-07T01:33:28;3.60;78.90
65408;DHT22;52017;51.230;-2.322;2022-12-07T01:37:10;3.50;78.90
65408;DHT22;52017;51.230;-2.322;2022-12-07T01:40:56;3.50;78.90
65408;DHT22;52017;51.230;-2.322;2022-12-07T01:53:09;3.40;79.20
65408;DHT22;52017;51.230;-2.322;2022-12-07T01:56:54;3.30;79.00
65408;DHT22;52017;51.230;-2.322;2022-12-07T02:00:38;3.20;79.00
65408;DHT22;52017;51.230;-2.322;2022-12-07T02:04:22;3.20;79.10
65408;DHT22;52017;51.230;-2.322;2022-12-07T02:08:04;3.20;79.10
65408;DHT22;52017;51.230;-2.322;2022-12-07T02:11:47;3.10;79.20
65408;DHT22;52017;51.230;-2.322;2022-12-07T02:32:19;3.00;79.30
65408;DHT22;52017;51.230;-2.322;2022-12-07T02:39:59;2.90;79.40
65408;DHT22;52017;51.230;-2.322;2022-12-07T02:43:47;3.00;79.40
65408;DHT22;52017;51.230;-2.322;2022-12-07T02:47:30;2.90;79.40
65408;DHT22;52017;51.230;-2.322;2022-12-07T02:51:13;3.00;79.80
65408;DHT22;52017;51.230;-2.322;2022-12-07T02:54:55;3.00;79.20
65408;DHT22;52017;51.230;-2.322;2022-12-07T03:03:11;2.90;79.30
65408;DHT22;52017;51.230;-2.322;2022-12-07T03:07:05;2.80;79.50
65408;DHT22;52017;51.230;-2.322;2022-12-07T03:11:00;2.70;79.30
65408;DHT22;52017;51.230;-2.322;2022-12-07T03:14:54;2.70;79.30
65408;DHT22;52017;51.230;-2.322;2022-12-07T03:18:50;2.60;79.60
65408;DHT22;52017;51.230;-2.322;2022-12-07T03:22:35;2.60;79.60
65408;DHT22;52017;51.230;-2.322;2022-12-07T03:26:19;2.60;79.70
65408;DHT22;52017;51.230;-2.322;2022-12-07T03:30:10;2.60;79.70
65408;DHT22;52017;51.230;-2.322;2022-12-07T03:34:20;2.70;79.80
65408;DHT22;52017;51.230;-2.322;2022-12-07T03:38:18;2.80;79.80
65408;DHT22;52017;51.230;-2.322;2022-12-07T03:42:04;2.80;79.80
65408;DHT22;52017;51.230;-2.322;2022-12-07T03:46:06;2.80;79.50
65408;DHT22;52017;51.230;-2.322;2022-12-07T03:50:56;2.70;79.60
65408;DHT22;52017;51.230;-2.322;2022-12-07T03:58:19;2.50;79.80
65408;DHT22;52017;51.230;-2.322;2022-12-07T04:02:05;2.50;79.50
65408;DHT22;52017;51.230;-2.322;2022-12-07T04:05:47;2.40;79.50
65408;DHT22;52017;51.230;-2.322;2022-12-07T04:09:30;2.40;79.60
65408;DHT22;52017;51.230;-2.322;2022-12-07T04:13:12;2.40;79.70
65408;DHT22;52017;51.230;-2.322;2022-12-07T04:16:56;2.30;79.70
65408;DHT22;52017;51.230;-2.322;2022-12-07T04:20:38;2.30;79.70
65408;DHT22;52017;51.230;-2.322;2022-12-07T04:24:20;2.20;79.70
65408;DHT22;52017;51.230;-2.322;2022-12-07T04:28:02;2.20;79.80
65408;DHT22;52017;51.230;-2.322;2022-12-07T04:31:44;2.10;79.80
65408;DHT22;52017;51.230;-2.322;2022-12-07T04:35:26;2.00;79.80
65408;DHT22;52017;51.230;-2.322;2022-12-07T04:39:35;2.00;79.90
65408;DHT22;52017;51.230;-2.322;2022-12-07T04:43:15;2.00;79.90
65408;DHT22;52017;51.230;-2.322;2022-12-07T04:46:58;2.00;80.00
65408;DHT22;52017;51.230;-2.322;2022-12-07T04:50:40;2.00;80.00
65408;DHT22;52017;51.230;-2.322;2022-12-07T04:54:27;2.00;80.10
65408;DHT22;52017;51.230;-2.322;2022-12-07T04:58:09;2.00;80.20
65408;DHT22;52017;51.230;-2.322;2022-12-07T05:01:51;1.90;80.20
65408;DHT22;52017;51.230;-2.322;2022-12-07T05:05:33;1.90;80.30
65408;DHT22;52017;51.230;-2.322;2022-12-07T05:09:15;1.90;80.30
65408;DHT22;52017;51.230;-2.322;2022-12-07T05:12:57;1.90;80.30
65408;DHT22;52017;51.230;-2.322;2022-12-07T05:16:39;1.80;80.30
65408;DHT22;52017;51.230;-2.322;2022-12-07T05:20:22;1.80;80.30
65408;DHT22;52017;51.230;-2.322;2022-12-07T05:24:06;1.80;80.30
65408;DHT22;52017;51.230;-2.322;2022-12-07T05:27:48;1.70;80.30
65408;DHT22;52017;51.230;-2.322;2022-12-07T05:31:31;1.70;80.40
65408;DHT22;52017;51.230;-2.322;2022-12-07T05:35:14;1.70;80.50
65408;DHT22;52017;51.230;-2.322;2022-12-07T05:38:56;1.60;80.50
65408;DHT22;52017;51.230;-2.322;2022-12-07T05:42:38;1.60;80.50
65408;DHT22;52017;51.230;-2.322;2022-12-07T05:46:21;1.60;80.60
65408;DHT22;52017;51.230;-2.322;2022-12-07T05:50:04;1.50;80.60
65408;DHT22;52017;51.230;-2.322;2022-12-07T05:53:47;1.50;80.60
65408;DHT22;52017;51.230;-2.322;2022-12-07T05:57:29;1.50;80.70
65408;DHT22;52017;51.230;-2.322;2022-12-07T06:01:11;1.50;80.70
65408;DHT22;52017;51.230;-2.322;2022-12-07T06:04:53;1.50;80.80
65408;DHT22;52017;51.230;-2.322;2022-12-07T06:08:35;1.50;80.80
65408;DHT22;52017;51.230;-2.322;2022-12-07T06:12:17;1.50;80.80
65408;DHT22;52017;51.230;-2.322;2022-12-07T06:16:17;1.50;80.80
65408;DHT22;52017;51.230;-2.322;2022-12-07T06:19:59;1.40;80.80
65408;DHT22;52017;51.230;-2.322;2022-12-07T06:23:42;1.40;80.80
65408;DHT22;52017;51.230;-2.322;2022-12-07T06:27:24;1.40;80.90
65408;DHT22;52017;51.230;-2.322;2022-12-07T06:31:07;1.30;80.90
65408;DHT22;52017;51.230;-2.322;2022-12-07T06:34:54;1.40;81.00
65408;DHT22;52017;51.230;-2.322;2022-12-07T06:38:36;1.30;80.90
65408;DHT22;52017;51.230;-2.322;2022-12-07T06:42:18;1.20;80.90
65408;DHT22;52017;51.230;-2.322;2022-12-07T06:46:01;1.20;80.90
65408;DHT22;52017;51.230;-2.322;2022-12-07T06:49:43;1.20;81.00
65408;DHT22;52017;51.230;-2.322;2022-12-07T06:53:25;1.20;81.00
65408;DHT22;52017;51.230;-2.322;2022-12-07T06:57:07;1.20;81.00
65408;DHT22;52017;51.230;-2.322;2022-12-07T07:00:49;1.10;81.10
65408;DHT22;52017;51.230;-2.322;2022-12-07T07:04:32;1.10;81.10
65408;DHT22;52017;51.230;-2.322;2022-12-07T07:08:14;1.10;81.10
65408;DHT22;52017;51.230;-2.322;2022-12-07T07:12:04;1.00;81.10
65408;DHT22;52017;51.230;-2.322;2022-12-07T07:15:46;1.00;81.20
65408;DHT22;52017;51.230;-2.322;2022-12-07T07:19:28;1.10;81.20
65408;DHT22;52017;51.230;-2.322;2022-12-07T07:23:10;1.00;81.20
65408;DHT22;52017;51.230;-2.322;2022-12-07T07:26:52;1.00;81.20
65408;DHT22;52017;51.230;-2.322;2022-12-07T07:30:34;1.00;81.20
65408;DHT22;52017;51.230;-2.322;2022-12-07T07:34:16;1.00;81.20
65408;DHT22;52017;51.230;-2.322;2022-12-07T07:37:59;1.00;81.20
65408;DHT22;52017;51.230;-2.322;2022-12-07T07:41:41;1.00;81.30
65408;DHT22;52017;51.230;-2.322;2022-12-07T07:45:24;0.90;81.30
65408;DHT22;52017;51.230;-2.322;2022-12-07T07:49:06;0.90;81.30
65408;DHT22;52017;51.230;-2.322;2022-12-07T07:52:49;0.90;81.30
65408;DHT22;52017;51.230;-2.322;2022-12-07T07:56:31;0.80;81.40
65408;DHT22;52017;51.230;-2.322;2022-12-07T08:00:14;0.80;81.40
65408;DHT22;52017;51.230;-2.322;2022-12-07T08:03:57;0.80;81.40
65408;DHT22;52017;51.230;-2.322;2022-12-07T08:07:39;0.80;81.40
65408;DHT22;52017;51.230;-2.322;2022-12-07T08:11:21;0.70;81.40
65408;DHT22;52017;51.230;-2.322;2022-12-07T08:15:04;0.80;81.50
65408;DHT22;52017;51.230;-2.322;2022-12-07T08:18:46;0.80;81.50
65408;DHT22;52017;51.230;-2.322;2022-12-07T08:22:28;0.80;81.50
65408;DHT22;52017;51.230;-2.322;2022-12-07T08:26:12;0.80;81.50
65408;DHT22;52017;51.230;-2.322;2022-12-07T08:29:55;0.80;81.50
65408;DHT22;52017;51.230;-2.322;2022-12-07T08:33:39;0.80;81.60
65408;DHT22;52017;51.230;-2.322;2022-12-07T08:37:22;0.90;81.60
65408;DHT22;52017;51.230;-2.322;2022-12-07T08:41:05;0.90;81.70
65408;DHT22;52017;51.230;-2.322;2022-12-07T08:44:48;0.90;81.70
65408;DHT22;52017;51.230;-2.322;2022-12-07T08:48:31;1.00;81.80
65408;DHT22;52017;51.230;-2.322;2022-12-07T08:52:13;1.00;81.70
65408;DHT22;52017;51.230;-2.322;2022-12-07T08:55:56;1.00;81.80
65408;DHT22;52017;51.230;-2.322;2022-12-07T08:59:39;1.10;81.80
65408;DHT22;52017;51.230;-2.322;2022-12-07T09:03:22;1.20;81.90
65408;DHT22;52017;51.230;-2.322;2022-12-07T09:07:05;1.40;82.30
65408;DHT22;52017;51.230;-2.322;2022-12-07T09:10:48;1.70;82.70
65408;DHT22;52017;51.230;-2.322;2022-12-07T09:14:30;2.00;82.30
65408;DHT22;52017;51.230;-2.322;2022-12-07T09:18:12;2.40;82.10
65408;DHT22;52017;51.230;-2.322;2022-12-07T09:21:54;2.70;81.70
65408;DHT22;52017;51.230;-2.322;2022-12-07T09:25:36;3.00;81.30
65408;DHT22;52017;51.230;-2.322;2022-12-07T09:29:18;3.30;81.00
65408;DHT22;52017;51.230;-2.322;2022-12-07T09:33:00;3.60;80.80
65408;DHT22;52017;51.230;-2.322;2022-12-07T09:36:46;4.00;80.50
65408;DHT22;52017;51.230;-2.322;2022-12-07T09:40:33;4.50;79.90
65408;DHT22;52017;51.230;-2.322;2022-12-07T09:44:23;5.10;79.20
65408;DHT22;52017;51.230;-2.322;2022-12-07T09:48:20;5.80;77.90
65408;DHT22;52017;51.230;-2.322;2022-12-07T09:55:50;5.40;76.90
65408;DHT22;52017;51.230;-2.322;2022-12-07T09:59:34;5.10;77.40
65408;DHT22;52017;51.230;-2.322;2022-12-07T10:03:17;4.80;77.60
65408;DHT22;52017;51.230;-2.322;2022-12-07T10:06:59;4.50;77.70
65408;DHT22;52017;51.230;-2.322;2022-12-07T10:10:45;4.30;77.90
65408;DHT22;52017;51.230;-2.322;2022-12-07T10:14:34;4.10;78.00
65408;DHT22;52017;51.230;-2.322;2022-12-07T10:18:39;4.00;78.30
65408;DHT22;52017;51.230;-2.322;2022-12-07T10:22:27;3.90;78.40
65408;DHT22;52017;51.230;-2.322;2022-12-07T10:30:20;3.80;79.10
65408;DHT22;52017;51.230;-2.322;2022-12-07T10:34:28;3.90;79.40
65408;DHT22;52017;51.230;-2.322;2022-12-07T10:38:19;4.00;80.10
65408;DHT22;52017;51.230;-2.322;2022-12-07T10:42:13;4.30;79.90
65408;DHT22;52017;51.230;-2.322;2022-12-07T10:46:22;4.60;79.90
65408;DHT22;52017;51.230;-2.322;2022-12-07T10:54:47;5.40;79.10
65408;DHT22;52017;51.230;-2.322;2022-12-07T10:58:47;5.50;78.60
65408;DHT22;52017;51.230;-2.322;2022-12-07T11:07:07;5.50;78.10
65408;DHT22;52017;51.230;-2.322;2022-12-07T11:23:02;5.20;78.30
65408;DHT22;52017;51.230;-2.322;2022-12-07T11:27:26;5.10;78.50
65408;DHT22;52017;51.230;-2.322;2022-12-07T11:31:34;5.20;78.30
65408;DHT22;52017;51.230;-2.322;2022-12-07T11:40:05;6.50;77.90
65408;DHT22;52017;51.230;-2.322;2022-12-07T11:44:34;8.00;75.30
65408;DHT22;52017;51.230;-2.322;2022-12-07T11:48:33;9.60;71.70
65408;DHT22;52017;51.230;-2.322;2022-12-07T11:52:35;11.00;69.00
65408;DHT22;52017;51.230;-2.322;2022-12-07T11:56:25;12.10;66.60
65408;DHT22;52017;51.230;-2.322;2022-12-07T12:00:16;13.10;66.20
65408;DHT22;52017;51.230;-2.322;2022-12-07T12:20:37;13.30;61.50
65408;DHT22;52017;51.230;-2.322;2022-12-07T12:24:26;12.80;62.00
65408;DHT22;52017;51.230;-2.322;2022-12-07T12:32:41;11.50;63.80
65408;DHT22;52017;51.230;-2.322;2022-12-07T12:36:44;11.10;66.50
65408;DHT22;52017;51.230;-2.322;2022-12-07T12:48:29;10.10;67.30
65408;DHT22;52017;51.230;-2.322;2022-12-07T12:56:30;9.90;67.90
65408;DHT22;52017;51.230;-2.322;2022-12-07T13:00:20;9.70;67.40
65408;DHT22;52017;51.230;-2.322;2022-12-07T13:04:21;9.50;68.40
65408;DHT22;52017;51.230;-2.322;2022-12-07T13:08:18;9.40;67.80
65408;DHT22;52017;51.230;-2.322;2022-12-07T13:12:13;9.20;67.60
65408;DHT22;52017;51.230;-2.322;2022-12-07T13:19:55;8.80;68.40
65408;DHT22;52017;51.230;-2.322;2022-12-07T13:27:28;8.60;69.50
65408;DHT22;52017;51.230;-2.322;2022-12-07T13:31:34;8.50;69.70
65408;DHT22;52017;51.230;-2.322;2022-12-07T13:35:37;8.50;69.50
65408;DHT22;52017;51.230;-2.322;2022-12-07T13:39:27;8.40;68.50
65408;DHT22;52017;51.230;-2.322;2022-12-07T13:43:14;8.30;69.20
65408;DHT22;52017;51.230;-2.322;2022-12-07T13:47:07;8.20;69.50
65408;DHT22;52017;51.230;-2.322;2022-12-07T13:50:56;8.10;69.80
65408;DHT22;52017;51.230;-2.322;2022-12-07T13:55:27;8.00;69.80
65408;DHT22;52017;51.230;-2.322;2022-12-07T13:58:49;8.00;70.00
65408;DHT22;52017;51.230;-2.322;2022-12-07T14:02:34;7.90;70.10
65408;DHT22;52017;51.230;-2.322;2022-12-07T14:06:25;7.80;70.20
65408;DHT22;52017;51.230;-2.322;2022-12-07T14:10:24;7.80;70.40
65408;DHT22;52017;51.230;-2.322;2022-12-07T14:14:10;7.80;70.20
65408;DHT22;52017;51.230;-2.322;2022-12-07T14:17:54;7.70;70.30
65408;DHT22;52017;51.230;-2.322;2022-12-07T14:21:37;7.60;70.20
65408;DHT22;52017;51.230;-2.322;2022-12-07T14:25:22;7.50;70.10
65408;DHT22;52017;51.230;-2.322;2022-12-07T14:33:10;7.40;70.00
65408;DHT22;52017;51.230;-2.322;2022-12-07T14:36:52;7.30;70.60
65408;DHT22;52017;51.230;-2.322;2022-12-07T14:40:35;7.20;70.60
65408;DHT22;52017;51.230;-2.322;2022-12-07T14:44:21;7.20;70.70
65408;DHT22;52017;51.230;-2.322;2022-12-07T14:48:13;7.10;70.80
65408;DHT22;52017;51.230;-2.322;2022-12-07T14:52:27;7.00;70.80
65408;DHT22;52017;51.230;-2.322;2022-12-07T14:56:30;7.00;70.80
65408;DHT22;52017;51.230;-2.322;2022-12-07T15:00:16;7.00;71.10
65408;DHT22;52017;51.230;-2.322;2022-12-07T15:03:59;6.90;71.10
65408;DHT22;52017;51.230;-2.322;2022-12-07T15:07:42;6.90;71.20
65408;DHT22;52017;51.230;-2.322;2022-12-07T15:11:29;6.80;71.30
65408;DHT22;52017;51.230;-2.322;2022-12-07T15:15:12;6.80;71.40
65408;DHT22;52017;51.230;-2.322;2022-12-07T15:18:54;6.70;71.50
65408;DHT22;52017;51.230;-2.322;2022-12-07T15:22:56;6.60;71.50
65408;DHT22;52017;51.230;-2.322;2022-12-07T15:26:39;6.60;71.60
65408;DHT22;52017;51.230;-2.322;2022-12-07T15:30:22;6.50;71.70
65408;DHT22;52017;51.230;-2.322;2022-12-07T15:34:04;6.50;71.80
65408;DHT22;52017;51.230;-2.322;2022-12-07T15:37:49;6.50;72.00
65408;DHT22;52017;51.230;-2.322;2022-12-07T15:41:31;6.50;72.10
65408;DHT22;52017;51.230;-2.322;2022-12-07T15:45:13;6.40;72.20
65408;DHT22;52017;51.230;-2.322;2022-12-07T15:48:57;6.40;72.20
65408;DHT22;52017;51.230;-2.322;2022-12-07T15:52:39;6.30;72.30
65408;DHT22;52017;51.230;-2.322;2022-12-07T15:56:25;6.20;72.40
65408;DHT22;52017;51.230;-2.322;2022-12-07T16:00:10;6.20;72.50
65408;DHT22;52017;51.230;-2.322;2022-12-07T16:03:54;6.10;72.50
65408;DHT22;52017;51.230;-2.322;2022-12-07T16:07:36;6.00;72.60
65408;DHT22;52017;51.230;-2.322;2022-12-07T16:11:21;6.00;72.70
65408;DHT22;52017;51.230;-2.322;2022-12-07T16:15:05;5.90;72.80
65408;DHT22;52017;51.230;-2.322;2022-12-07T16:18:49;5.90;72.90
65408;DHT22;52017;51.230;-2.322;2022-12-07T16:22:35;5.80;73.00
65408;DHT22;52017;51.230;-2.322;2022-12-07T16:26:20;5.80;73.00
65408;DHT22;52017;51.230;-2.322;2022-12-07T16:30:08;5.60;73.10
65408;DHT22;52017;51.230;-2.322;2022-12-07T16:33:55;5.60;73.30
65408;DHT22;52017;51.230;-2.322;2022-12-07T16:37:41;5.50;73.40
65408;DHT22;52017;51.230;-2.322;2022-12-07T16:41:25;5.40;73.50
65408;DHT22;52017;51.230;-2.322;2022-12-07T16:45:10;5.30;73.60
65408;DHT22;52017;51.230;-2.322;2022-12-07T16:49:01;5.20;73.80
65408;DHT22;52017;51.230;-2.322;2022-12-07T16:52:47;5.10;74.00
65408;DHT22;52017;51.230;-2.322;2022-12-07T16:56:33;5.00;74.20
65408;DHT22;52017;51.230;-2.322;2022-12-07T17:00:19;4.90;74.30
65408;DHT22;52017;51.230;-2.322;2022-12-07T17:04:02;4.70;74.50
65408;DHT22;52017;51.230;-2.322;2022-12-07T17:07:51;4.60;74.60
65408;DHT22;52017;51.230;-2.322;2022-12-07T17:11:33;4.50;74.70
65408;DHT22;52017;51.230;-2.322;2022-12-07T17:15:15;4.40;74.90
65408;DHT22;52017;51.230;-2.322;2022-12-07T17:19:11;4.30;75.10
65408;DHT22;52017;51.230;-2.322;2022-12-07T17:23:04;4.20;75.50
65408;DHT22;52017;51.230;-2.322;2022-12-07T17:26:46;4.10;75.40
65408;DHT22;52017;51.230;-2.322;2022-12-07T17:30:30;4.00;75.50
65408;DHT22;52017;51.230;-2.322;2022-12-07T17:34:19;3.90;75.70
65408;DHT22;52017;51.230;-2.322;2022-12-07T17:38:04;3.80;75.90
65408;DHT22;52017;51.230;-2.322;2022-12-07T17:41:56;3.70;76.00
65408;DHT22;52017;51.230;-2.322;2022-12-07T17:45:58;3.70;76.20
65408;DHT22;52017;51.230;-2.322;2022-12-07T17:49:44;3.60;76.30
65408;DHT22;52017;51.230;-2.322;2022-12-07T17:53:27;3.50;76.30
65408;DHT22;52017;51.230;-2.322;2022-12-07T17:57:12;3.50;76.40
65408;DHT22;52017;51.230;-2.322;2022-12-07T18:00:54;3.40;76.50
65408;DHT22;52017;51.230;-2.322;2022-12-07T18:04:37;3.40;76.70
65408;DHT22;52017;51.230;-2.322;2022-12-07T18:08:19;3.30;76.80
65408;DHT22;52017;51.230;-2.322;2022-12-07T18:12:02;3.20;77.00
65408;DHT22;52017;51.230;-2.322;2022-12-07T18:15:45;3.20;77.00
65408;DHT22;52017;51.230;-2.322;2022-12-07T18:19:28;3.10;77.00
65408;DHT22;52017;51.230;-2.322;2022-12-07T18:23:10;3.00;77.00
65408;DHT22;52017;51.230;-2.322;2022-12-07T18:26:53;3.00;77.10
65408;DHT22;52017;51.230;-2.322;2022-12-07T18:30:35;2.90;77.10
65408;DHT22;52017;51.230;-2.322;2022-12-07T18:34:37;2.80;77.20
65408;DHT22;52017;51.230;-2.322;2022-12-07T18:38:21;2.70;77.20
65408;DHT22;52017;51.230;-2.322;2022-12-07T18:42:03;2.70;77.30
65408;DHT22;52017;51.230;-2.322;2022-12-07T18:45:50;2.60;77.40
65408;DHT22;52017;51.230;-2.322;2022-12-07T18:49:41;2.60;77.50
65408;DHT22;52017;51.230;-2.322;2022-12-07T18:53:37;2.50;77.50
65408;DHT22;52017;51.230;-2.322;2022-12-07T18:57:20;2.40;77.60
65408;DHT22;52017;51.230;-2.322;2022-12-07T19:01:02;2.40;77.60
65408;DHT22;52017;51.230;-2.322;2022-12-07T19:04:45;2.30;77.60
65408;DHT22;52017;51.230;-2.322;2022-12-07T19:08:33;2.30;77.80
65408;DHT22;52017;51.230;-2.322;2022-12-07T19:12:22;2.20;77.80
65408;DHT22;52017;51.230;-2.322;2022-12-07T19:16:06;2.20;77.90
65408;DHT22;52017;51.230;-2.322;2022-12-07T19:20:13;2.10;77.90
65408;DHT22;52017;51.230;-2.322;2022-12-07T19:24:05;2.10;77.90
65408;DHT22;52017;51.230;-2.322;2022-12-07T19:27:47;2.10;78.00
65408;DHT22;52017;51.230;-2.322;2022-12-07T19:31:30;2.00;78.40
65408;DHT22;52017;51.230;-2.322;2022-12-07T19:35:13;2.00;77.90
65408;DHT22;52017;51.230;-2.322;2022-12-07T19:38:55;2.00;77.90
65408;DHT22;52017;51.230;-2.322;2022-12-07T19:42:37;1.90;78.00
65408;DHT22;52017;51.230;-2.322;2022-12-07T19:46:22;1.80;78.00
65408;DHT22;52017;51.230;-2.322;2022-12-07T19:50:05;1.70;78.20
65408;DHT22;52017;51.230;-2.322;2022-12-07T19:53:47;1.70;78.30
65408;DHT22;52017;51.230;-2.322;2022-12-07T19:57:29;1.60;78.50
65408;DHT22;52017;51.230;-2.322;2022-12-07T20:01:11;1.60;78.50
65408;DHT22;52017;51.230;-2.322;2022-12-07T20:04:54;1.50;78.50
65408;DHT22;52017;51.230;-2.322;2022-12-07T20:08:38;1.50;78.50
65408;DHT22;52017;51.230;-2.322;2022-12-07T20:12:24;1.50;78.60
65408;DHT22;52017;51.230;-2.322;2022-12-07T20:16:25;1.50;78.90
65408;DHT22;52017;51.230;-2.322;2022-12-07T20:20:07;1.50;78.40
65408;DHT22;52017;51.230;-2.322;2022-12-07T20:23:49;1.50;78.50
65408;DHT22;52017;51.230;-2.322;2022-12-07T20:27:31;1.40;78.50
65408;DHT22;52017;51.230;-2.322;2022-12-07T20:31:17;1.30;78.50
65408;DHT22;52017;51.230;-2.322;2022-12-07T20:35:01;1.30;78.60
65408;DHT22;52017;51.230;-2.322;2022-12-07T20:38:46;1.20;78.70
65408;DHT22;52017;51.230;-2.322;2022-12-07T20:42:28;1.20;78.70
65408;DHT22;52017;51.230;-2.322;2022-12-07T20:46:20;1.20;78.80
65408;DHT22;52017;51.230;-2.322;2022-12-07T20:50:07;1.20;78.90
65408;DHT22;52017;51.230;-2.322;2022-12-07T20:53:50;1.20;78.90
65408;DHT22;52017;51.230;-2.322;2022-12-07T20:57:32;1.20;78.90
65408;DHT22;52017;51.230;-2.322;2022-12-07T21:01:17;1.10;78.90
65408;DHT22;52017;51.230;-2.322;2022-12-07T21:05:00;1.10;78.90
65408;DHT22;52017;51.230;-2.322;2022-12-07T21:08:47;1.00;79.00
65408;DHT22;52017;51.230;-2.322;2022-12-07T21:12:29;1.00;79.00
65408;DHT22;52017;51.230;-2.322;2022-12-07T21:16:14;1.00;79.00
65408;DHT22;52017;51.230;-2.322;2022-12-07T21:19:57;1.00;79.10
65408;DHT22;52017;51.230;-2.322;2022-12-07T21:23:42;1.00;79.10
65408;DHT22;52017;51.230;-2.322;2022-12-07T21:27:24;0.90;79.10
65408;DHT22;52017;51.230;-2.322;2022-12-07T21:31:07;0.90;79.10
65408;DHT22;52017;51.230;-2.322;2022-12-07T21:34:55;0.80;79.20
65408;DHT22;52017;51.230;-2.322;2022-12-07T21:38:38;0.80;79.20
65408;DHT22;52017;51.230;-2.322;2022-12-07T21:42:20;0.70;79.20
65408;DHT22;52017;51.230;-2.322;2022-12-07T21:46:02;0.70;79.20
65408;DHT22;52017;51.230;-2.322;2022-12-07T21:49:44;0.70;79.20
65408;DHT22;52017;51.230;-2.322;2022-12-07T21:53:26;0.70;79.20
65408;DHT22;52017;51.230;-2.322;2022-12-07T21:57:08;0.70;79.20
65408;DHT22;52017;51.230;-2.322;2022-12-07T22:00:51;0.60;79.20
65408;DHT22;52017;51.230;-2.322;2022-12-07T22:04:33;0.50;79.20
65408;DHT22;52017;51.230;-2.322;2022-12-07T22:08:17;0.60;79.30
65408;DHT22;52017;51.230;-2.322;2022-12-07T22:12:00;0.50;79.30
65408;DHT22;52017;51.230;-2.322;2022-12-07T22:15:45;0.50;79.30
65408;DHT22;52017;51.230;-2.322;2022-12-07T22:19:28;0.40;79.30
65408;DHT22;52017;51.230;-2.322;2022-12-07T22:23:11;0.40;79.40
65408;DHT22;52017;51.230;-2.322;2022-12-07T22:26:56;0.40;79.40
65408;DHT22;52017;51.230;-2.322;2022-12-07T22:30:38;0.40;79.40
65408;DHT22;52017;51.230;-2.322;2022-12-07T22:34:21;0.40;79.50
65408;DHT22;52017;51.230;-2.322;2022-12-07T22:38:05;0.40;79.40
65408;DHT22;52017;51.230;-2.322;2022-12-07T22:41:54;0.30;79.40
65408;DHT22;52017;51.230;-2.322;2022-12-07T22:45:36;0.30;79.40
65408;DHT22;52017;51.230;-2.322;2022-12-07T22:49:24;0.30;79.40
65408;DHT22;52017;51.230;-2.322;2022-12-07T22:53:09;0.30;79.50
65408;DHT22;52017;51.230;-2.322;2022-12-07T22:56:54;0.20;79.50
65408;DHT22;52017;51.230;-2.322;2022-12-07T23:00:36;0.20;79.60
65408;DHT22;52017;51.230;-2.322;2022-12-07T23:04:18;0.20;79.60
65408;DHT22;52017;51.230;-2.322;2022-12-07T23:08:02;0.20;79.60
65408;DHT22;52017;51.230;-2.322;2022-12-07T23:11:45;0.10;79.60
65408;DHT22;52017;51.230;-2.322;2022-12-07T23:15:45;0.10;79.60
65408;DHT22;52017;51.230;-2.322;2022-12-07T23:19:28;0.10;79.60
65408;DHT22;52017;51.230;-2.322;2022-12-07T23:23:10;0.00;79.50
65408;DHT22;52017;51.230;-2.322;2022-12-07T23:26:52;0.00;79.60
65408;DHT22;52017;51.230;-2.322;2022-12-07T23:30:36;0.00;79.50
65408;DHT22;52017;51.230;-2.322;2022-12-07T23:34:18;0.00;79.60
65408;DHT22;52017;51.230;-2.322;2022-12-07T23:38:01;0.00;79.60
65408;DHT22;52017;51.230;-2.322;2022-12-07T23:41:43;0.00;79.60
65408;DHT22;52017;51.230;-2.322;2022-12-07T23:45:27;0.00;79.60
65408;DHT22;52017;51.230;-2.322;2022-12-07T23:49:10;-0.10;79.60
65408;DHT22;52017;51.230;-2.322;2022-12-07T23:52:53;-0.10;79.60
65408;DHT22;52017;51.230;-2.322;2022-12-07T23:56:36;-0.10;79.60
